レイキャビク/ケフラヴィーク の空港の天気 - METARとTAF

ケフラヴィーク国際空港 ( BIKF / KEF ) - アイスランド ケプラヴィーク
飛行場実況気象(Metar)
観測時間02/01 15:30 GMT (02/01 15:30 UTC)
風向・風速南東 6m/s
視程10km以上
天気現象
少しの雲 雲底高度 850m
全天の8割程度の雲 雲底高度 5490m
気温-2℃
湿度86%
気圧1005hPa
METARBIKF 011530Z 13012KT 9999 FEW028 BKN180 M02/M04 Q1005
過去の天気等 Google飛行場航空写真 Wunderground天気予報

過去48時間のMETAR

飛行場予報(TAF)
発表時間: 2/01 13:08 GMT (2/01 13:08 UTC)
予報対象時間: 1日15時 GMT ~ 2日15時 GMT
風向・風速東南東 3m/s
視程10km以上
全天の4割程度の雲 雲底高度 1220m
1日15時 GMT ~ 1日17時 GMT に一時的に
視程1500m
天気現象弱いしゅう雪
全天の8割程度の雲 雲底高度 240m
1日19時 GMT ~ 1日21時 GMT に徐々に
風向・風速東南東 8m/s
2日1時 GMT ~ 2日3時 GMT に徐々に
風向・風速東南東 13m/s
視程4000m
天気現象弱い雪
全天の8割程度の雲 雲底高度 370m
全天を覆う雲 雲底高度 730m
2日2時 GMT ~ 2日6時 GMT に一時的に
視程800m
天気現象雪雨
全天を覆う雲 雲底高度 240m
2日4時 GMT ~ 2日6時 GMT に徐々に
風向・風速東南東 14m/s 瞬間風速 20m/s
2日6時 GMT ~ 2日8時 GMT に徐々に
風向・風速東南東 19m/s 瞬間風速 26m/s
視程3500m
天気現象雨霧雨 もや
全天を覆う雲 雲底高度 370m
2日8時 GMT ~ 2日15時 GMT に一時的に
風向・風速東南東 13m/s 瞬間風速 21m/s
TAF BIKF 011308Z 0115/0215 12005KT 9999 SCT040 TX05/0212Z TNM02/0115Z
TEMPO 0115/0117 1500 -SHSN BKN008
BECMG 0119/0121 11015KT
BECMG 0201/0203 11025KT 4000 -SN BKN012 OVC024
TEMPO 0202/0206 0800 SNRA OVC008
BECMG 0204/0206 12028G38KT
BECMG 0206/0208 12036G50KT 3500 RADZ BR OVC012
TEMPO 0208/0215 12026G40KT